Weather - Helsinki Query any day in the database

Current weather  

Weather data for a selected day (2006-01-01 -2020-10-30)
Enter date:     <-     scroll days         ->
day curves
Low temperature°C +2.000:20
High temperature°C +9.019:20
Low wind chill°C -3.923:50
Average temperature°C +6.5 
High wind speed (10 min) m/s 13.023:50
Low pressurehPa 965.021:50
High pressurehPa 992.000:20
Low R.H% 8000:20
High R.H% 10014:20
Day weather data as a table
Date Time Temp
°C
Chill
°C
Pressure
hPA
Wind
m/s
Hum
%
Precip
mm
2011-11-27 23:50:00 3.0  -3.9  968.0 13.0 86 -
2011-11-27 22:50:00 6.0  0.9  966.0 10.0 86 -
2011-11-27 21:50:00 8.0  4.1  965.0 8.0 87 -
2011-11-27 21:20:00 8.0  4.1  965.0 8.0 87 -
2011-11-27 20:20:00 8.0  3.8  966.0 9.0 87 -
2011-11-27 19:20:00 9.0  5.4  966.0 8.0 87 -
2011-11-27 17:50:00 9.0  5.1  968.0 9.0 93 -
2011-11-27 17:20:00 9.0  5.1  968.0 9.0 93 -
2011-11-27 16:20:00 9.0  5.1  970.0 9.0 93 -
2011-11-27 15:50:00 9.0  5.1  971.0 9.0 93 -
2011-11-27 15:20:00 9.0  5.4  972.0 8.0 93 -
2011-11-27 14:20:00 7.0  4.3  975.0 4.0 100 -
2011-11-27 13:50:00 7.0  4.9  977.0 3.0 100 -
2011-11-27 13:20:00 7.0  4.9  978.0 3.0 93 -
2011-11-27 12:50:00 7.0  4.9  979.0 3.0 93 -
2011-11-27 12:20:00 7.0  4.3  980.0 4.0 93 -
2011-11-27 11:50:00 7.0  4.9  980.0 3.0 93 -
2011-11-27 11:20:00 7.0  4.9  981.0 3.0 93 -
2011-11-27 10:50:00 6.0  3.7  982.0 3.0 100 -
2011-11-27 09:50:00 7.0  4.3  982.0 4.0 93 -
2011-11-27 09:20:00 7.0  4.9  982.0 3.0 93 -
2011-11-27 08:50:00 7.0  4.9  982.0 3.0 93 -
2011-11-27 08:20:00 6.0  3.7  982.0 3.0 100 -
2011-11-27 07:50:00 6.0  3.7  982.0 3.0 100 -
2011-11-27 06:50:00 6.0  3.7  983.0 3.0 93 -
2011-11-27 05:50:00 5.0  1.8  984.0 4.0 93 -
2011-11-27 05:20:00 4.0  0.6  985.0 4.0 100 -
2011-11-27 04:20:00 5.0  1.8  987.0 4.0 86 -
2011-11-27 03:50:00 4.0  0.6  988.0 4.0 93 -
2011-11-27 03:20:00 4.0  0.6  989.0 4.0 86 -
2011-11-27 02:20:00 4.0  0.6  990.0 4.0 80 -
2011-11-27 00:20:00 2.0  -1.8  992.0 4.0 80 -
Unit conversions: